Herminie, Pennsylvania
Current Conditions -  °F | °C
As of 2:53 AM on Thursday 18 Dec 2014 (Local Time) from KAGC Reporting Station
Overcast Overcast  
Wind Chill: 15°   Ceiling: 2300
Heat Index: 27°   Visibility: 10mi
Dew Point: 17°   Wind: 15mph
Humidity: 66%   Direction: 280°W
Pressure: 30.15"   Gusts: 22mph
Location:  40.26°N, 79.72°W
Report Text: KAGC 180753Z AUTO 28013G19KT 10SM OVC023 M03/M08 A3015 RMK AO2 SLP230 T10281083 TSNO
Loading
Personal Weather Stations






























Interactive Weather Map New forecast layout! Learn more

10-Day Weather Forecast

Advertisements
Track Severe Weather on mobile